Terminal Aerodrome Forecast
Issued by NWS

Home | Current Version | Previous Version | Text Only | Print | Product List | Glossary On
Versions: 1 2 3 4 5 6 7 8 9 10 11 12 13 14 15 16 17 18 19
114
FTUS41 KCAR 291209 AAA
TAFPQI
TAF AMD
KPQI 291209Z 2912/3012 25003KT 6SM -SHRA BKN080
     FM291400 24004KT P6SM BKN040
     FM300100 18004KT P6SM SCT040 BKN250
     FM300900 VRB03KT P6SM VCSH BKN040=

USA.gov is the U.S. government's official web portal to all federal, state and local government web resources and services.